createdAt,value
2018-05-17T00:04:25.768Z,99405.84
2018-05-17T00:10:30.265Z,99410.79
2018-05-17T00:16:35.454Z,99408.98
2018-05-17T00:22:39.820Z,99407.12
2018-05-17T00:28:44.162Z,99407.08
2018-05-17T00:34:51.399Z,99408.31
2018-05-17T00:40:55.768Z,99407.89
2018-05-17T00:47:00.279Z,99419.85
2018-05-17T00:53:22.482Z,99429.08
2018-05-17T00:59:26.842Z,99432.34
2018-05-17T01:05:31.218Z,99434.41
2018-05-17T01:11:36.341Z,99432.73
2018-05-17T01:17:40.740Z,99440.97
2018-05-17T01:23:45.108Z,99441.08
2018-05-17T01:29:49.469Z,99435.75
2018-05-17T01:35:54.939Z,99438.47
2018-05-17T01:41:59.456Z,99441.24
2018-05-17T01:48:03.942Z,99441.57
2018-05-17T01:54:08.319Z,99449.17
2018-05-17T02:00:13.476Z,99450.73
2018-05-17T02:06:17.933Z,99456.66
2018-05-17T02:12:22.562Z,99454.45
2018-05-17T02:18:26.941Z,99461.91
2018-05-17T02:24:31.419Z,99456.25
2018-05-17T02:30:36.867Z,99467.72
2018-05-17T02:36:42.164Z,99462.85
2018-05-17T02:42:46.638Z,99472.89
2018-05-17T02:48:52.604Z,99480.64
2018-05-17T02:54:57.081Z,99474.52
2018-05-17T03:01:01.669Z,99471.42
2018-05-17T03:07:06.256Z,99481.66
2018-05-17T03:13:11.590Z,99481.30
2018-05-17T03:19:16.141Z,99495.69
2018-05-17T03:25:20.597Z,99497.55
2018-05-17T03:31:25.952Z,99506.90
2018-05-17T03:37:30.401Z,99497.36
2018-05-17T03:43:34.951Z,99503.91
2018-05-17T03:49:39.720Z,99506.03
2018-05-17T03:55:44.299Z,99515.13
2018-05-17T04:02:06.435Z,99512.79
2018-05-17T04:08:11.566Z,99519.92
2018-05-17T04:14:15.912Z,99532.72
2018-05-17T04:20:21.679Z,99524.38
2018-05-17T04:26:26.256Z,99525.09
2018-05-17T04:32:30.882Z,99532.54
2018-05-17T04:38:35.794Z,99539.30
2018-05-17T04:44:40.784Z,99536.04
2018-05-17T04:50:45.404Z,99547.92
2018-05-17T04:56:50.925Z,99541.16
2018-05-17T05:02:55.818Z,99542.64
2018-05-17T05:09:00.160Z,99542.80
2018-05-17T05:15:04.703Z,99551.87
2018-05-17T05:21:09.088Z,99546.39
2018-05-17T05:27:13.432Z,99550.03
2018-05-17T05:33:17.804Z,99555.09
2018-05-17T05:39:23.018Z,99557.73
2018-05-17T05:45:28.309Z,99554.33
2018-05-17T05:51:32.656Z,99564.13
2018-05-17T05:57:37.769Z,99574.28
2018-05-17T06:03:42.141Z,99578.50
2018-05-17T06:09:46.491Z,99573.60
2018-05-17T06:15:51.649Z,99582.41
2018-05-17T06:21:56.015Z,99593.84
2018-05-17T06:28:00.380Z,99589.69
2018-05-17T06:34:04.820Z,99592.42
2018-05-17T06:40:09.935Z,99602.56
2018-05-17T06:46:14.316Z,99596.66
2018-05-17T06:52:18.710Z,99599.61
2018-05-17T06:58:24.592Z,99598.53
2018-05-17T07:04:28.967Z,99613.09
2018-05-17T07:10:33.434Z,99612.52
2018-05-17T07:16:38.658Z,99611.28
2018-05-17T07:22:43.004Z,99612.67
2018-05-17T07:28:47.369Z,99615.20
2018-05-17T07:34:52.915Z,99616.98
2018-05-17T07:40:57.267Z,99616.48
2018-05-17T07:47:01.660Z,99620.17
2018-05-17T07:53:06.170Z,99627.05
2018-05-17T07:59:10.581Z,99631.20
2018-05-17T08:05:15.710Z,99636.29
2018-05-17T08:11:20.182Z,99634.02
2018-05-17T08:17:24.628Z,99636.68
2018-05-17T08:23:29.753Z,99641.16
2018-05-17T08:29:34.096Z,99640.35
2018-05-17T08:35:39.294Z,99649.34
2018-05-17T08:41:43.818Z,99645.05
2018-05-17T08:47:48.201Z,99648.10
2018-05-17T09:06:52.585Z,99665.25
2018-05-17T09:12:57.069Z,99658.84
2018-05-17T09:19:01.446Z,99668.70
2018-05-17T09:25:05.983Z,99671.39
2018-05-17T09:31:10.385Z,99663.75
2018-05-17T09:37:14.755Z,99665.53
2018-05-17T09:43:19.980Z,99667.84
2018-05-17T09:49:24.579Z,99670.30
2018-05-17T09:55:28.957Z,99666.26
2018-05-17T10:01:34.141Z,99671.36
2018-05-17T10:07:38.668Z,99667.25
2018-05-17T10:13:44.037Z,99667.13
2018-05-17T10:19:48.393Z,99672.01
2018-05-17T10:25:52.870Z,99663.77
2018-05-17T10:31:57.339Z,99657.97
2018-05-17T10:38:01.697Z,99654.55
2018-05-17T10:44:06.286Z,99655.60
2018-05-17T10:50:10.641Z,99651.42
2018-05-17T10:56:14.993Z,99644.88
2018-05-17T11:02:20.337Z,99660.16
2018-05-17T11:08:24.740Z,99656.77
2018-05-17T11:14:29.489Z,99655.63
2018-05-17T11:20:33.894Z,99661.64
2018-05-17T11:26:38.283Z,99645.23
2018-05-17T11:32:42.645Z,99642.75
2018-05-17T11:38:46.989Z,99646.42
2018-05-17T11:44:51.670Z,99633.97
2018-05-17T11:50:56.030Z,99639.81
2018-05-17T11:57:00.383Z,99638.59
2018-05-17T12:03:05.494Z,99636.83
2018-05-17T12:09:09.889Z,99638.78
2018-05-17T12:15:14.280Z,99638.72
2018-05-17T12:21:18.772Z,99637.00
2018-05-17T12:27:24.774Z,99627.19
2018-05-17T12:33:29.196Z,99612.25
2018-05-17T12:39:34.329Z,99619.02
2018-05-17T12:45:38.725Z,99620.30
2018-05-17T12:51:43.097Z,99622.83
2018-05-17T12:57:47.586Z,99624.77
2018-05-17T13:03:52.138Z,99624.36
2018-05-17T13:09:56.999Z,99623.34
2018-05-17T13:16:01.470Z,99618.17
2018-05-17T13:22:06.684Z,99614.81
2018-05-17T13:28:11.271Z,99614.19
2018-05-17T13:34:16.447Z,99616.50
2018-05-17T13:40:20.850Z,99605.13
2018-05-17T13:46:25.220Z,99603.66
2018-05-17T13:52:29.621Z,99597.54
2018-05-17T13:58:35.607Z,99606.05
2018-05-17T14:04:40.080Z,99595.95
2018-05-17T14:10:45.272Z,99592.45
2018-05-17T14:16:49.804Z,99600.52
2018-05-17T14:22:54.942Z,99601.76
2018-05-17T14:28:59.294Z,99600.45
2018-05-17T14:35:03.813Z,99598.38
2018-05-17T14:41:08.160Z,99601.91
2018-05-17T14:47:12.589Z,99595.39
2018-05-17T14:53:16.979Z,99601.05
2018-05-17T14:59:23.477Z,99592.68
2018-05-17T15:05:27.924Z,99597.50
2018-05-17T15:11:32.329Z,99589.27
2018-05-17T15:17:36.890Z,99592.44
2018-05-17T15:23:41.653Z,99594.28
2018-05-17T15:29:46.095Z,99587.20
2018-05-17T15:35:50.525Z,99590.33
2018-05-17T15:41:55.656Z,99584.84
2018-05-17T15:48:00.079Z,99592.17
2018-05-17T15:54:04.438Z,99586.16
2018-05-17T16:00:08.836Z,99589.71
2018-05-17T16:06:13.268Z,99579.40
2018-05-17T16:12:18.422Z,99597.20
2018-05-17T16:18:23.824Z,99596.76
2018-05-17T16:24:29.036Z,99600.83
2018-05-17T16:30:33.465Z,99597.23
2018-05-17T16:36:37.841Z,99614.69
2018-05-17T16:42:42.234Z,99611.31
2018-05-17T16:48:46.577Z,99615.64
2018-05-17T16:54:51.988Z,99619.51
2018-05-17T17:00:56.476Z,99615.90
2018-05-17T17:07:00.824Z,99620.18
2018-05-17T17:13:05.228Z,99624.84
2018-05-17T17:19:09.609Z,99631.55
2018-05-17T17:25:14.009Z,99636.89
2018-05-17T17:31:18.385Z,99642.28
2018-05-17T17:37:23.423Z,99655.09
2018-05-17T17:43:27.803Z,99658.63
2018-05-17T17:49:32.194Z,99669.25
2018-05-17T17:55:36.630Z,99673.89
2018-05-17T18:01:41.766Z,99670.95
2018-05-17T18:07:46.162Z,99669.11
2018-05-17T18:13:50.844Z,99683.83
2018-05-17T18:19:56.006Z,99687.36
2018-05-17T18:26:00.428Z,99693.50
2018-05-17T18:32:05.534Z,99694.33
2018-05-17T18:38:10.656Z,99704.64
2018-05-17T18:44:15.064Z,99709.55
2018-05-17T18:50:19.629Z,99710.32
2018-05-17T18:56:24.319Z,99710.95
2018-05-17T19:02:28.729Z,99726.97
2018-05-17T19:08:34.029Z,99731.92
2018-05-17T19:14:38.436Z,99749.91
2018-05-17T19:20:42.883Z,99746.77
2018-05-17T19:26:48.012Z,99745.41
2018-05-17T19:32:52.717Z,99754.74
2018-05-17T19:38:57.185Z,99757.25
2018-05-17T19:45:01.575Z,99758.19
2018-05-17T19:51:06.023Z,99769.75
2018-05-17T19:57:10.380Z,99775.37
2018-05-17T20:03:14.737Z,99773.17
2018-05-17T20:09:19.971Z,99780.63
2018-05-17T20:15:24.490Z,99786.03
2018-05-17T20:21:29.124Z,99782.71
2018-05-17T20:27:33.515Z,99782.98
2018-05-17T20:33:37.891Z,99787.52
2018-05-17T20:39:42.286Z,99790.73
2018-05-17T20:45:46.719Z,99786.91
2018-05-17T20:51:52.194Z,99803.14
2018-05-17T20:57:56.705Z,99802.08
2018-05-17T21:04:01.128Z,99800.41
2018-05-17T21:10:06.361Z,99795.20
2018-05-17T21:16:10.735Z,99803.86
2018-05-17T21:22:15.858Z,99803.73
2018-05-17T21:28:20.581Z,99799.49
2018-05-17T21:34:25.696Z,99799.17
2018-05-17T21:40:30.040Z,99792.03
2018-05-17T21:46:34.583Z,99787.31
2018-05-17T21:52:38.983Z,99785.17
2018-05-17T21:58:44.120Z,99798.62
2018-05-17T22:04:48.725Z,99792.38
2018-05-17T22:10:54.231Z,99794.94
2018-05-17T22:16:58.716Z,99801.96
2018-05-17T22:23:03.130Z,99792.51
2018-05-17T22:29:07.554Z,99794.08
2018-05-17T22:35:12.117Z,99791.55
2018-05-17T22:41:16.506Z,99795.74
2018-05-17T22:47:21.820Z,99796.56
2018-05-17T22:53:26.452Z,99785.44
2018-05-17T22:59:31.833Z,99780.01
2018-05-17T23:05:36.355Z,99776.27
2018-05-17T23:11:40.754Z,99779.30
2018-05-17T23:17:46.100Z,99776.16
2018-05-17T23:23:51.888Z,99778.35
2018-05-17T23:29:56.598Z,99777.34
2018-05-17T23:36:01.160Z,99774.04
2018-05-17T23:42:05.855Z,99778.43
2018-05-17T23:48:10.290Z,99775.33
2018-05-17T23:54:14.717Z,99757.08
